sensor_id;sensor_type;location;lat;lon;timestamp;P1;durP1;ratioP1;P2;durP2;ratioP2
12554;SDS011;6343;50.868;4.700;2023-01-28T00:00:34;8.23;;;6.43;;
12554;SDS011;6343;50.868;4.700;2023-01-28T00:03:01;7.07;;;5.33;;
12554;SDS011;6343;50.868;4.700;2023-01-28T00:05:27;6.27;;;4.90;;
12554;SDS011;6343;50.868;4.700;2023-01-28T00:07:54;6.57;;;5.30;;
12554;SDS011;6343;50.868;4.700;2023-01-28T00:10:21;5.87;;;4.63;;
12554;SDS011;6343;50.868;4.700;2023-01-28T00:12:48;7.97;;;5.33;;
12554;SDS011;6343;50.868;4.700;2023-01-28T00:15:14;6.90;;;4.80;;
12554;SDS011;6343;50.868;4.700;2023-01-28T00:17:41;5.83;;;4.87;;
12554;SDS011;6343;50.868;4.700;2023-01-28T00:20:07;6.30;;;4.73;;
12554;SDS011;6343;50.868;4.700;2023-01-28T00:22:33;7.30;;;4.87;;
12554;SDS011;6343;50.868;4.700;2023-01-28T00:24:59;6.60;;;4.87;;
12554;SDS011;6343;50.868;4.700;2023-01-28T00:27:25;7.80;;;5.40;;
12554;SDS011;6343;50.868;4.700;2023-01-28T00:29:51;6.70;;;5.20;;
12554;SDS011;6343;50.868;4.700;2023-01-28T00:32:19;7.37;;;5.60;;
12554;SDS011;6343;50.868;4.700;2023-01-28T00:34:45;7.20;;;5.70;;
12554;SDS011;6343;50.868;4.700;2023-01-28T00:37:11;6.47;;;5.10;;
12554;SDS011;6343;50.868;4.700;2023-01-28T00:39:37;6.80;;;5.43;;
12554;SDS011;6343;50.868;4.700;2023-01-28T00:42:03;6.93;;;4.93;;
12554;SDS011;6343;50.868;4.700;2023-01-28T00:44:29;7.60;;;5.60;;
12554;SDS011;6343;50.868;4.700;2023-01-28T00:46:56;6.67;;;5.33;;
12554;SDS011;6343;50.868;4.700;2023-01-28T00:49:22;8.93;;;6.10;;
12554;SDS011;6343;50.868;4.700;2023-01-28T00:51:48;8.07;;;5.60;;
12554;SDS011;6343;50.868;4.700;2023-01-28T00:54:14;8.70;;;6.00;;
12554;SDS011;6343;50.868;4.700;2023-01-28T00:56:40;9.33;;;6.77;;
12554;SDS011;6343;50.868;4.700;2023-01-28T00:59:06;8.00;;;6.40;;
12554;SDS011;6343;50.868;4.700;2023-01-28T01:01:33;8.90;;;6.97;;
12554;SDS011;6343;50.868;4.700;2023-01-28T01:03:59;8.53;;;6.10;;
12554;SDS011;6343;50.868;4.700;2023-01-28T01:06:29;9.23;;;6.00;;
12554;SDS011;6343;50.868;4.700;2023-01-28T01:08:55;7.30;;;5.43;;
12554;SDS011;6343;50.868;4.700;2023-01-28T01:11:21;8.73;;;6.47;;
12554;SDS011;6343;50.868;4.700;2023-01-28T01:16:21;7.57;;;5.63;;
12554;SDS011;6343;50.868;4.700;2023-01-28T01:18:47;8.67;;;6.27;;
12554;SDS011;6343;50.868;4.700;2023-01-28T01:21:14;7.57;;;5.33;;
12554;SDS011;6343;50.868;4.700;2023-01-28T01:23:42;7.40;;;6.17;;
12554;SDS011;6343;50.868;4.700;2023-01-28T01:26:09;7.93;;;6.20;;
12554;SDS011;6343;50.868;4.700;2023-01-28T01:28:35;8.40;;;6.20;;
12554;SDS011;6343;50.868;4.700;2023-01-28T01:31:03;8.23;;;6.07;;
12554;SDS011;6343;50.868;4.700;2023-01-28T01:33:30;9.63;;;6.33;;
12554;SDS011;6343;50.868;4.700;2023-01-28T01:35:56;8.27;;;6.50;;
12554;SDS011;6343;50.868;4.700;2023-01-28T01:38:22;8.53;;;6.23;;
12554;SDS011;6343;50.868;4.700;2023-01-28T01:40:48;9.07;;;6.93;;
12554;SDS011;6343;50.868;4.700;2023-01-28T01:43:18;9.53;;;6.90;;
12554;SDS011;6343;50.868;4.700;2023-01-28T01:45:49;9.53;;;6.90;;
12554;SDS011;6343;50.868;4.700;2023-01-28T01:48:18;9.23;;;6.97;;
12554;SDS011;6343;50.868;4.700;2023-01-28T01:51:20;8.70;;;6.87;;
12554;SDS011;6343;50.868;4.700;2023-01-28T01:53:39;10.07;;;7.27;;
12554;SDS011;6343;50.868;4.700;2023-01-28T01:56:06;11.50;;;7.90;;
12554;SDS011;6343;50.868;4.700;2023-01-28T01:58:34;11.23;;;7.10;;
12554;SDS011;6343;50.868;4.700;2023-01-28T02:01:01;9.67;;;7.60;;
12554;SDS011;6343;50.868;4.700;2023-01-28T02:03:28;8.67;;;6.90;;
12554;SDS011;6343;50.868;4.700;2023-01-28T02:05:56;8.53;;;6.67;;
12554;SDS011;6343;50.868;4.700;2023-01-28T02:08:22;10.23;;;7.60;;
12554;SDS011;6343;50.868;4.700;2023-01-28T02:11:01;10.63;;;7.70;;
12554;SDS011;6343;50.868;4.700;2023-01-28T02:13:35;12.40;;;7.77;;
12554;SDS011;6343;50.868;4.700;2023-01-28T02:16:02;9.67;;;7.67;;
12554;SDS011;6343;50.868;4.700;2023-01-28T02:18:30;11.93;;;8.47;;
12554;SDS011;6343;50.868;4.700;2023-01-28T02:23:32;10.47;;;7.90;;
12554;SDS011;6343;50.868;4.700;2023-01-28T02:26:14;11.23;;;7.60;;
12554;SDS011;6343;50.868;4.700;2023-01-28T02:31:36;9.70;;;7.13;;
12554;SDS011;6343;50.868;4.700;2023-01-28T02:39:11;10.73;;;7.83;;
12554;SDS011;6343;50.868;4.700;2023-01-28T02:41:43;11.27;;;8.57;;
12554;SDS011;6343;50.868;4.700;2023-01-28T02:44:11;11.87;;;8.50;;
12554;SDS011;6343;50.868;4.700;2023-01-28T02:46:37;11.27;;;8.57;;
12554;SDS011;6343;50.868;4.700;2023-01-28T03:07:47;14.40;;;9.33;;
12554;SDS011;6343;50.868;4.700;2023-01-28T03:10:16;12.00;;;8.33;;
12554;SDS011;6343;50.868;4.700;2023-01-28T03:12:42;11.30;;;8.93;;
12554;SDS011;6343;50.868;4.700;2023-01-28T03:15:28;10.80;;;7.63;;
12554;SDS011;6343;50.868;4.700;2023-01-28T03:21:04;12.17;;;8.03;;
12554;SDS011;6343;50.868;4.700;2023-01-28T03:26:36;11.40;;;7.53;;
12554;SDS011;6343;50.868;4.700;2023-01-28T03:29:22;10.13;;;6.83;;
12554;SDS011;6343;50.868;4.700;2023-01-28T03:32:07;12.67;;;8.17;;
12554;SDS011;6343;50.868;4.700;2023-01-28T03:34:53;10.67;;;6.90;;
12554;SDS011;6343;50.868;4.700;2023-01-28T03:37:37;11.10;;;7.63;;
12554;SDS011;6343;50.868;4.700;2023-01-28T03:40:04;10.40;;;7.40;;
12554;SDS011;6343;50.868;4.700;2023-01-28T03:42:31;11.20;;;7.23;;
12554;SDS011;6343;50.868;4.700;2023-01-28T03:44:58;11.47;;;7.60;;
12554;SDS011;6343;50.868;4.700;2023-01-28T03:47:27;9.57;;;6.90;;
12554;SDS011;6343;50.868;4.700;2023-01-28T03:49:54;11.90;;;7.50;;
12554;SDS011;6343;50.868;4.700;2023-01-28T03:52:21;11.43;;;7.00;;
12554;SDS011;6343;50.868;4.700;2023-01-28T03:54:47;11.83;;;7.53;;
12554;SDS011;6343;50.868;4.700;2023-01-28T03:57:14;10.27;;;6.60;;
12554;SDS011;6343;50.868;4.700;2023-01-28T03:59:40;10.43;;;7.43;;
12554;SDS011;6343;50.868;4.700;2023-01-28T04:02:07;12.50;;;7.90;;
12554;SDS011;6343;50.868;4.700;2023-01-28T04:04:35;11.83;;;7.77;;
12554;SDS011;6343;50.868;4.700;2023-01-28T04:07:01;11.30;;;7.60;;
12554;SDS011;6343;50.868;4.700;2023-01-28T04:09:27;12.03;;;8.10;;
12554;SDS011;6343;50.868;4.700;2023-01-28T04:11:53;11.57;;;7.70;;
12554;SDS011;6343;50.868;4.700;2023-01-28T04:14:19;12.17;;;7.73;;
12554;SDS011;6343;50.868;4.700;2023-01-28T04:16:45;10.23;;;7.10;;
12554;SDS011;6343;50.868;4.700;2023-01-28T04:19:11;10.70;;;7.57;;
12554;SDS011;6343;50.868;4.700;2023-01-28T04:21:38;10.23;;;6.60;;
12554;SDS011;6343;50.868;4.700;2023-01-28T04:24:04;10.37;;;7.20;;
12554;SDS011;6343;50.868;4.700;2023-01-28T04:26:30;11.60;;;7.33;;
12554;SDS011;6343;50.868;4.700;2023-01-28T04:28:56;10.07;;;6.97;;
12554;SDS011;6343;50.868;4.700;2023-01-28T04:31:23;11.03;;;7.23;;
12554;SDS011;6343;50.868;4.700;2023-01-28T04:33:49;11.93;;;7.73;;
12554;SDS011;6343;50.868;4.700;2023-01-28T04:36:15;11.13;;;7.23;;
12554;SDS011;6343;50.868;4.700;2023-01-28T04:38:41;12.53;;;7.37;;
12554;SDS011;6343;50.868;4.700;2023-01-28T04:41:07;11.50;;;7.60;;
12554;SDS011;6343;50.868;4.700;2023-01-28T04:43:33;11.97;;;7.50;;
12554;SDS011;6343;50.868;4.700;2023-01-28T04:45:59;10.93;;;7.27;;
12554;SDS011;6343;50.868;4.700;2023-01-28T04:48:25;10.93;;;7.53;;
12554;SDS011;6343;50.868;4.700;2023-01-28T04:50:54;11.07;;;7.30;;
12554;SDS011;6343;50.868;4.700;2023-01-28T04:53:20;11.07;;;7.97;;
12554;SDS011;6343;50.868;4.700;2023-01-28T04:55:46;9.87;;;7.17;;
12554;SDS011;6343;50.868;4.700;2023-01-28T04:58:13;11.03;;;7.50;;
12554;SDS011;6343;50.868;4.700;2023-01-28T05:00:39;11.03;;;7.87;;
12554;SDS011;6343;50.868;4.700;2023-01-28T05:03:05;11.37;;;7.70;;
12554;SDS011;6343;50.868;4.700;2023-01-28T05:05:31;14.23;;;8.00;;
12554;SDS011;6343;50.868;4.700;2023-01-28T05:07:57;11.33;;;7.67;;
12554;SDS011;6343;50.868;4.700;2023-01-28T05:10:24;11.10;;;7.40;;
12554;SDS011;6343;50.868;4.700;2023-01-28T05:12:50;11.07;;;7.60;;
12554;SDS011;6343;50.868;4.700;2023-01-28T05:15:17;11.20;;;7.60;;
12554;SDS011;6343;50.868;4.700;2023-01-28T05:17:43;13.13;;;7.67;;
12554;SDS011;6343;50.868;4.700;2023-01-28T05:20:10;12.90;;;7.60;;
12554;SDS011;6343;50.868;4.700;2023-01-28T05:22:36;14.37;;;8.23;;
12554;SDS011;6343;50.868;4.700;2023-01-28T05:25:03;11.50;;;8.00;;
12554;SDS011;6343;50.868;4.700;2023-01-28T05:27:30;12.43;;;7.20;;
12554;SDS011;6343;50.868;4.700;2023-01-28T05:29:57;12.57;;;8.40;;
12554;SDS011;6343;50.868;4.700;2023-01-28T05:32:24;10.37;;;7.40;;
12554;SDS011;6343;50.868;4.700;2023-01-28T05:34:50;10.43;;;7.63;;
12554;SDS011;6343;50.868;4.700;2023-01-28T05:37:16;11.67;;;7.80;;
12554;SDS011;6343;50.868;4.700;2023-01-28T05:39:42;11.80;;;7.63;;
12554;SDS011;6343;50.868;4.700;2023-01-28T05:42:08;12.10;;;8.60;;
12554;SDS011;6343;50.868;4.700;2023-01-28T05:44:34;11.30;;;7.60;;
12554;SDS011;6343;50.868;4.700;2023-01-28T05:47:02;11.07;;;7.83;;
12554;SDS011;6343;50.868;4.700;2023-01-28T05:49:28;12.63;;;8.43;;
12554;SDS011;6343;50.868;4.700;2023-01-28T05:51:54;13.80;;;8.20;;
12554;SDS011;6343;50.868;4.700;2023-01-28T05:54:20;12.73;;;8.73;;
12554;SDS011;6343;50.868;4.700;2023-01-28T05:56:46;12.17;;;7.37;;
12554;SDS011;6343;50.868;4.700;2023-01-28T05:59:12;11.83;;;7.73;;
12554;SDS011;6343;50.868;4.700;2023-01-28T06:01:39;12.00;;;8.03;;
12554;SDS011;6343;50.868;4.700;2023-01-28T06:04:06;12.53;;;8.00;;
12554;SDS011;6343;50.868;4.700;2023-01-28T06:06:32;12.20;;;8.37;;
12554;SDS011;6343;50.868;4.700;2023-01-28T06:08:58;12.67;;;8.50;;
12554;SDS011;6343;50.868;4.700;2023-01-28T06:11:24;12.17;;;7.87;;
12554;SDS011;6343;50.868;4.700;2023-01-28T06:13:50;11.90;;;8.07;;
12554;SDS011;6343;50.868;4.700;2023-01-28T06:16:16;11.53;;;8.23;;
12554;SDS011;6343;50.868;4.700;2023-01-28T06:18:42;11.97;;;8.07;;
12554;SDS011;6343;50.868;4.700;2023-01-28T06:21:08;12.23;;;7.37;;
12554;SDS011;6343;50.868;4.700;2023-01-28T06:23:35;12.53;;;8.07;;
12554;SDS011;6343;50.868;4.700;2023-01-28T06:26:01;12.00;;;7.93;;
12554;SDS011;6343;50.868;4.700;2023-01-28T06:28:27;14.47;;;8.20;;
12554;SDS011;6343;50.868;4.700;2023-01-28T06:30:53;10.80;;;7.67;;
12554;SDS011;6343;50.868;4.700;2023-01-28T06:33:20;10.93;;;7.57;;
12554;SDS011;6343;50.868;4.700;2023-01-28T06:35:46;10.50;;;7.50;;
12554;SDS011;6343;50.868;4.700;2023-01-28T06:38:12;11.33;;;7.73;;
12554;SDS011;6343;50.868;4.700;2023-01-28T06:40:38;9.50;;;6.90;;
12554;SDS011;6343;50.868;4.700;2023-01-28T06:43:05;11.07;;;7.30;;
12554;SDS011;6343;50.868;4.700;2023-01-28T06:45:31;9.50;;;7.20;;
12554;SDS011;6343;50.868;4.700;2023-01-28T06:47:58;10.27;;;7.47;;
12554;SDS011;6343;50.868;4.700;2023-01-28T06:50:24;11.37;;;7.90;;
12554;SDS011;6343;50.868;4.700;2023-01-28T06:52:50;12.57;;;7.80;;
12554;SDS011;6343;50.868;4.700;2023-01-28T06:55:16;11.33;;;7.37;;
12554;SDS011;6343;50.868;4.700;2023-01-28T06:57:42;14.80;;;8.30;;
12554;SDS011;6343;50.868;4.700;2023-01-28T07:00:10;10.30;;;6.73;;
12554;SDS011;6343;50.868;4.700;2023-01-28T07:02:40;10.40;;;7.40;;
12554;SDS011;6343;50.868;4.700;2023-01-28T07:05:06;12.87;;;7.23;;
12554;SDS011;6343;50.868;4.700;2023-01-28T07:07:32;11.47;;;7.80;;
12554;SDS011;6343;50.868;4.700;2023-01-28T07:09:59;11.70;;;7.30;;
12554;SDS011;6343;50.868;4.700;2023-01-28T07:12:25;9.83;;;7.13;;
12554;SDS011;6343;50.868;4.700;2023-01-28T07:14:51;10.10;;;6.93;;
12554;SDS011;6343;50.868;4.700;2023-01-28T07:17:17;15.30;;;7.27;;
12554;SDS011;6343;50.868;4.700;2023-01-28T07:19:43;9.60;;;7.30;;
12554;SDS011;6343;50.868;4.700;2023-01-28T07:22:09;9.70;;;6.50;;
12554;SDS011;6343;50.868;4.700;2023-01-28T07:24:35;10.57;;;6.80;;
12554;SDS011;6343;50.868;4.700;2023-01-28T07:27:01;10.30;;;7.37;;
12554;SDS011;6343;50.868;4.700;2023-01-28T07:29:28;11.83;;;7.40;;
12554;SDS011;6343;50.868;4.700;2023-01-28T07:31:54;10.43;;;7.13;;
12554;SDS011;6343;50.868;4.700;2023-01-28T07:34:20;11.53;;;7.60;;
12554;SDS011;6343;50.868;4.700;2023-01-28T07:36:46;11.63;;;7.10;;
12554;SDS011;6343;50.868;4.700;2023-01-28T07:39:12;9.57;;;6.63;;
12554;SDS011;6343;50.868;4.700;2023-01-28T07:41:38;9.53;;;6.50;;
12554;SDS011;6343;50.868;4.700;2023-01-28T07:44:04;10.23;;;6.90;;
12554;SDS011;6343;50.868;4.700;2023-01-28T07:46:31;10.73;;;7.37;;
12554;SDS011;6343;50.868;4.700;2023-01-28T07:48:57;10.97;;;7.07;;
12554;SDS011;6343;50.868;4.700;2023-01-28T07:51:23;8.90;;;6.27;;
12554;SDS011;6343;50.868;4.700;2023-01-28T07:53:49;13.17;;;7.40;;
12554;SDS011;6343;50.868;4.700;2023-01-28T07:56:15;11.80;;;7.03;;
12554;SDS011;6343;50.868;4.700;2023-01-28T07:58:41;10.33;;;7.23;;
12554;SDS011;6343;50.868;4.700;2023-01-28T08:01:07;20.13;;;7.77;;
12554;SDS011;6343;50.868;4.700;2023-01-28T08:03:33;12.73;;;7.57;;
12554;SDS011;6343;50.868;4.700;2023-01-28T08:06:00;11.50;;;6.83;;
12554;SDS011;6343;50.868;4.700;2023-01-28T08:08:26;9.60;;;6.90;;
12554;SDS011;6343;50.868;4.700;2023-01-28T08:10:52;11.37;;;7.13;;
12554;SDS011;6343;50.868;4.700;2023-01-28T08:13:19;13.60;;;9.03;;
12554;SDS011;6343;50.868;4.700;2023-01-28T08:15:45;11.77;;;7.53;;
12554;SDS011;6343;50.868;4.700;2023-01-28T08:18:12;13.40;;;7.40;;
12554;SDS011;6343;50.868;4.700;2023-01-28T08:20:39;9.30;;;6.40;;
12554;SDS011;6343;50.868;4.700;2023-01-28T08:23:11;8.77;;;6.47;;
12554;SDS011;6343;50.868;4.700;2023-01-28T08:25:37;12.17;;;6.93;;
12554;SDS011;6343;50.868;4.700;2023-01-28T08:28:04;9.83;;;7.07;;
12554;SDS011;6343;50.868;4.700;2023-01-28T08:30:30;9.23;;;6.43;;
12554;SDS011;6343;50.868;4.700;2023-01-28T08:32:57;12.43;;;6.83;;
12554;SDS011;6343;50.868;4.700;2023-01-28T08:35:23;10.93;;;6.40;;
12554;SDS011;6343;50.868;4.700;2023-01-28T08:37:49;10.40;;;6.97;;
12554;SDS011;6343;50.868;4.700;2023-01-28T08:40:16;9.93;;;6.53;;
12554;SDS011;6343;50.868;4.700;2023-01-28T08:42:46;9.60;;;6.23;;
12554;SDS011;6343;50.868;4.700;2023-01-28T08:45:13;9.43;;;6.53;;
12554;SDS011;6343;50.868;4.700;2023-01-28T08:47:52;9.97;;;6.70;;
12554;SDS011;6343;50.868;4.700;2023-01-28T08:50:19;11.23;;;6.67;;
12554;SDS011;6343;50.868;4.700;2023-01-28T08:52:45;14.63;;;6.93;;
12554;SDS011;6343;50.868;4.700;2023-01-28T08:55:13;11.67;;;7.20;;
12554;SDS011;6343;50.868;4.700;2023-01-28T08:57:39;13.70;;;7.20;;
12554;SDS011;6343;50.868;4.700;2023-01-28T09:00:06;9.57;;;6.90;;
12554;SDS011;6343;50.868;4.700;2023-01-28T09:02:35;9.93;;;6.90;;
12554;SDS011;6343;50.868;4.700;2023-01-28T09:05:01;11.20;;;7.27;;
12554;SDS011;6343;50.868;4.700;2023-01-28T09:07:27;10.13;;;6.73;;
12554;SDS011;6343;50.868;4.700;2023-01-28T09:09:53;11.60;;;7.47;;
12554;SDS011;6343;50.868;4.700;2023-01-28T09:12:19;10.60;;;7.47;;
12554;SDS011;6343;50.868;4.700;2023-01-28T09:14:45;10.97;;;7.67;;
12554;SDS011;6343;50.868;4.700;2023-01-28T09:17:11;11.77;;;6.73;;
12554;SDS011;6343;50.868;4.700;2023-01-28T09:19:37;10.73;;;7.30;;
12554;SDS011;6343;50.868;4.700;2023-01-28T09:22:03;11.73;;;7.90;;
12554;SDS011;6343;50.868;4.700;2023-01-28T09:24:30;11.73;;;7.23;;
12554;SDS011;6343;50.868;4.700;2023-01-28T09:26:56;10.60;;;7.33;;
12554;SDS011;6343;50.868;4.700;2023-01-28T09:29:22;13.73;;;8.87;;
12554;SDS011;6343;50.868;4.700;2023-01-28T09:31:48;11.13;;;7.70;;
12554;SDS011;6343;50.868;4.700;2023-01-28T09:34:14;12.10;;;7.97;;
12554;SDS011;6343;50.868;4.700;2023-01-28T09:36:41;13.80;;;8.27;;
12554;SDS011;6343;50.868;4.700;2023-01-28T09:39:07;28.97;;;9.00;;
12554;SDS011;6343;50.868;4.700;2023-01-28T09:44:22;12.57;;;7.70;;
12554;SDS011;6343;50.868;4.700;2023-01-28T09:46:49;11.50;;;7.17;;
12554;SDS011;6343;50.868;4.700;2023-01-28T09:51:57;12.90;;;7.60;;
12554;SDS011;6343;50.868;4.700;2023-01-28T09:57:06;10.03;;;7.43;;
12554;SDS011;6343;50.868;4.700;2023-01-28T09:59:35;10.87;;;7.50;;
12554;SDS011;6343;50.868;4.700;2023-01-28T10:10:39;10.20;;;7.27;;
12554;SDS011;6343;50.868;4.700;2023-01-28T10:17:56;11.73;;;7.87;;
12554;SDS011;6343;50.868;4.700;2023-01-28T10:20:32;14.73;;;7.63;;
12554;SDS011;6343;50.868;4.700;2023-01-28T10:23:05;16.40;;;7.90;;
12554;SDS011;6343;50.868;4.700;2023-01-28T10:25:33;17.47;;;7.63;;
12554;SDS011;6343;50.868;4.700;2023-01-28T10:28:00;14.87;;;7.67;;
12554;SDS011;6343;50.868;4.700;2023-01-28T10:30:27;10.83;;;7.50;;
12554;SDS011;6343;50.868;4.700;2023-01-28T10:35:23;10.67;;;7.00;;
12554;SDS011;6343;50.868;4.700;2023-01-28T10:37:51;11.83;;;8.03;;
12554;SDS011;6343;50.868;4.700;2023-01-28T10:40:19;10.73;;;7.30;;
12554;SDS011;6343;50.868;4.700;2023-01-28T10:42:45;15.57;;;7.93;;
12554;SDS011;6343;50.868;4.700;2023-01-28T10:45:16;12.13;;;8.07;;
12554;SDS011;6343;50.868;4.700;2023-01-28T10:50:28;12.27;;;8.27;;
12554;SDS011;6343;50.868;4.700;2023-01-28T10:53:05;11.83;;;7.37;;
12554;SDS011;6343;50.868;4.700;2023-01-28T10:55:45;10.70;;;7.40;;
12554;SDS011;6343;50.868;4.700;2023-01-28T10:58:16;11.37;;;7.83;;
12554;SDS011;6343;50.868;4.700;2023-01-28T11:00:43;11.70;;;8.07;;
12554;SDS011;6343;50.868;4.700;2023-01-28T11:03:15;12.53;;;7.93;;
12554;SDS011;6343;50.868;4.700;2023-01-28T11:05:49;11.03;;;7.33;;
12554;SDS011;6343;50.868;4.700;2023-01-28T11:08:16;14.43;;;8.63;;
12554;SDS011;6343;50.868;4.700;2023-01-28T11:10:42;11.23;;;7.70;;
12554;SDS011;6343;50.868;4.700;2023-01-28T11:13:22;13.53;;;7.83;;
12554;SDS011;6343;50.868;4.700;2023-01-28T11:15:49;11.63;;;8.03;;
12554;SDS011;6343;50.868;4.700;2023-01-28T11:21:18;11.80;;;8.20;;
12554;SDS011;6343;50.868;4.700;2023-01-28T11:24:04;12.77;;;7.77;;
12554;SDS011;6343;50.868;4.700;2023-01-28T11:26:31;10.33;;;7.50;;
12554;SDS011;6343;50.868;4.700;2023-01-28T11:28:58;12.40;;;7.80;;
12554;SDS011;6343;50.868;4.700;2023-01-28T11:31:24;11.00;;;7.30;;
12554;SDS011;6343;50.868;4.700;2023-01-28T11:33:53;10.73;;;7.53;;
12554;SDS011;6343;50.868;4.700;2023-01-28T11:36:25;11.07;;;7.37;;
12554;SDS011;6343;50.868;4.700;2023-01-28T11:38:52;9.93;;;7.13;;
12554;SDS011;6343;50.868;4.700;2023-01-28T11:41:24;16.00;;;7.77;;
12554;SDS011;6343;50.868;4.700;2023-01-28T11:43:51;9.73;;;7.30;;
12554;SDS011;6343;50.868;4.700;2023-01-28T12:05:05;9.77;;;7.13;;
12554;SDS011;6343;50.868;4.700;2023-01-28T12:10:08;12.20;;;8.47;;
12554;SDS011;6343;50.868;4.700;2023-01-28T12:17:55;13.30;;;7.80;;
12554;SDS011;6343;50.868;4.700;2023-01-28T12:25:38;10.97;;;8.23;;
12554;SDS011;6343;50.868;4.700;2023-01-28T12:31:04;14.77;;;8.60;;
12554;SDS011;6343;50.868;4.700;2023-01-28T12:41:11;13.20;;;8.73;;
12554;SDS011;6343;50.868;4.700;2023-01-28T12:46:23;13.13;;;9.10;;
12554;SDS011;6343;50.868;4.700;2023-01-28T12:48:55;13.07;;;8.50;;
12554;SDS011;6343;50.868;4.700;2023-01-28T12:51:23;12.50;;;7.67;;
12554;SDS011;6343;50.868;4.700;2023-01-28T12:56:26;12.33;;;8.17;;
12554;SDS011;6343;50.868;4.700;2023-01-28T12:59:10;13.50;;;9.60;;
12554;SDS011;6343;50.868;4.700;2023-01-28T13:06:49;11.63;;;8.10;;
12554;SDS011;6343;50.868;4.700;2023-01-28T13:09:18;14.17;;;8.33;;
12554;SDS011;6343;50.868;4.700;2023-01-28T13:11:45;11.13;;;7.60;;
12554;SDS011;6343;50.868;4.700;2023-01-28T13:14:13;11.03;;;8.03;;
12554;SDS011;6343;50.868;4.700;2023-01-28T13:16:39;15.03;;;8.67;;
12554;SDS011;6343;50.868;4.700;2023-01-28T13:19:07;12.43;;;8.37;;
12554;SDS011;6343;50.868;4.700;2023-01-28T13:21:35;12.33;;;8.53;;
12554;SDS011;6343;50.868;4.700;2023-01-28T13:26:29;12.33;;;7.63;;
12554;SDS011;6343;50.868;4.700;2023-01-28T13:29:59;12.73;;;8.43;;
12554;SDS011;6343;50.868;4.700;2023-01-28T13:31:52;9.93;;;7.33;;
12554;SDS011;6343;50.868;4.700;2023-01-28T13:36:51;12.60;;;8.57;;
12554;SDS011;6343;50.868;4.700;2023-01-28T13:39:18;13.20;;;7.93;;
12554;SDS011;6343;50.868;4.700;2023-01-28T13:41:47;11.17;;;8.07;;
12554;SDS011;6343;50.868;4.700;2023-01-28T13:44:32;11.60;;;7.97;;
12554;SDS011;6343;50.868;4.700;2023-01-28T13:47:20;12.10;;;8.40;;
12554;SDS011;6343;50.868;4.700;2023-01-28T13:49:46;11.60;;;8.30;;
12554;SDS011;6343;50.868;4.700;2023-01-28T13:52:14;12.00;;;8.50;;
12554;SDS011;6343;50.868;4.700;2023-01-28T13:54:52;14.30;;;8.80;;
12554;SDS011;6343;50.868;4.700;2023-01-28T13:57:27;11.73;;;8.03;;
12554;SDS011;6343;50.868;4.700;2023-01-28T14:00:07;11.53;;;8.20;;
12554;SDS011;6343;50.868;4.700;2023-01-28T14:07:48;13.27;;;8.77;;
12554;SDS011;6343;50.868;4.700;2023-01-28T14:12:57;14.03;;;9.60;;
12554;SDS011;6343;50.868;4.700;2023-01-28T14:17:55;12.33;;;8.70;;
12554;SDS011;6343;50.868;4.700;2023-01-28T14:20:26;11.27;;;7.90;;
12554;SDS011;6343;50.868;4.700;2023-01-28T14:22:57;12.20;;;8.87;;
12554;SDS011;6343;50.868;4.700;2023-01-28T14:25:27;12.67;;;8.33;;
12554;SDS011;6343;50.868;4.700;2023-01-28T14:27:54;13.83;;;8.00;;
12554;SDS011;6343;50.868;4.700;2023-01-28T14:30:23;12.80;;;8.93;;
12554;SDS011;6343;50.868;4.700;2023-01-28T14:32:51;12.07;;;8.63;;
12554;SDS011;6343;50.868;4.700;2023-01-28T14:35:28;12.53;;;8.30;;
12554;SDS011;6343;50.868;4.700;2023-01-28T14:37:55;15.17;;;9.43;;
12554;SDS011;6343;50.868;4.700;2023-01-28T14:40:22;12.63;;;8.90;;
12554;SDS011;6343;50.868;4.700;2023-01-28T14:42:49;12.10;;;8.43;;
12554;SDS011;6343;50.868;4.700;2023-01-28T14:52:54;12.80;;;7.97;;
12554;SDS011;6343;50.868;4.700;2023-01-28T14:55:25;13.67;;;8.43;;
12554;SDS011;6343;50.868;4.700;2023-01-28T14:57:54;19.07;;;8.50;;
12554;SDS011;6343;50.868;4.700;2023-01-28T15:00:22;13.60;;;8.20;;
12554;SDS011;6343;50.868;4.700;2023-01-28T15:02:48;10.73;;;7.97;;
12554;SDS011;6343;50.868;4.700;2023-01-28T15:05:16;11.57;;;8.00;;
12554;SDS011;6343;50.868;4.700;2023-01-28T15:07:43;13.03;;;8.93;;
12554;SDS011;6343;50.868;4.700;2023-01-28T15:12:37;15.37;;;9.67;;
12554;SDS011;6343;50.868;4.700;2023-01-28T15:15:10;12.50;;;8.67;;
12554;SDS011;6343;50.868;4.700;2023-01-28T15:17:37;12.30;;;8.83;;
12554;SDS011;6343;50.868;4.700;2023-01-28T15:20:05;13.13;;;9.33;;
12554;SDS011;6343;50.868;4.700;2023-01-28T15:22:31;13.33;;;8.60;;
12554;SDS011;6343;50.868;4.700;2023-01-28T15:24:58;15.73;;;9.53;;
12554;SDS011;6343;50.868;4.700;2023-01-28T15:27:27;13.93;;;9.17;;
12554;SDS011;6343;50.868;4.700;2023-01-28T15:29:56;12.37;;;8.73;;
12554;SDS011;6343;50.868;4.700;2023-01-28T15:32:29;13.60;;;8.53;;
12554;SDS011;6343;50.868;4.700;2023-01-28T15:34:55;16.83;;;9.60;;
12554;SDS011;6343;50.868;4.700;2023-01-28T15:37:24;12.07;;;8.33;;
12554;SDS011;6343;50.868;4.700;2023-01-28T15:40:00;17.83;;;9.10;;
12554;SDS011;6343;50.868;4.700;2023-01-28T15:42:26;16.20;;;8.90;;
12554;SDS011;6343;50.868;4.700;2023-01-28T15:44:53;14.87;;;9.30;;
12554;SDS011;6343;50.868;4.700;2023-01-28T15:49:49;13.30;;;9.13;;
12554;SDS011;6343;50.868;4.700;2023-01-28T15:52:16;13.47;;;8.47;;
12554;SDS011;6343;50.868;4.700;2023-01-28T15:54:51;14.53;;;8.80;;
12554;SDS011;6343;50.868;4.700;2023-01-28T15:57:20;13.50;;;8.90;;
12554;SDS011;6343;50.868;4.700;2023-01-28T15:59:46;13.37;;;9.07;;
12554;SDS011;6343;50.868;4.700;2023-01-28T16:02:24;16.63;;;9.03;;
12554;SDS011;6343;50.868;4.700;2023-01-28T16:07:23;12.83;;;9.23;;
12554;SDS011;6343;50.868;4.700;2023-01-28T16:09:50;12.80;;;8.47;;
12554;SDS011;6343;50.868;4.700;2023-01-28T16:12:17;14.03;;;9.77;;
12554;SDS011;6343;50.868;4.700;2023-01-28T16:14:50;13.00;;;8.80;;
12554;SDS011;6343;50.868;4.700;2023-01-28T16:17:21;13.90;;;9.27;;
12554;SDS011;6343;50.868;4.700;2023-01-28T16:19:57;27.60;;;16.73;;
12554;SDS011;6343;50.868;4.700;2023-01-28T16:22:31;20.40;;;12.33;;
12554;SDS011;6343;50.868;4.700;2023-01-28T16:24:57;19.27;;;9.43;;
12554;SDS011;6343;50.868;4.700;2023-01-28T16:27:24;14.80;;;8.67;;
12554;SDS011;6343;50.868;4.700;2023-01-28T16:29:50;10.80;;;7.90;;
12554;SDS011;6343;50.868;4.700;2023-01-28T16:32:24;22.50;;;9.23;;
12554;SDS011;6343;50.868;4.700;2023-01-28T16:34:51;12.73;;;8.57;;
12554;SDS011;6343;50.868;4.700;2023-01-28T16:37:17;14.50;;;9.37;;
12554;SDS011;6343;50.868;4.700;2023-01-28T16:39:44;11.03;;;8.23;;
12554;SDS011;6343;50.868;4.700;2023-01-28T16:42:10;14.20;;;9.33;;
12554;SDS011;6343;50.868;4.700;2023-01-28T16:44:36;14.73;;;9.37;;
12554;SDS011;6343;50.868;4.700;2023-01-28T16:47:03;13.10;;;8.70;;
12554;SDS011;6343;50.868;4.700;2023-01-28T16:49:29;17.10;;;9.03;;
12554;SDS011;6343;50.868;4.700;2023-01-28T16:51:55;15.17;;;8.80;;
12554;SDS011;6343;50.868;4.700;2023-01-28T16:54:22;17.13;;;10.73;;
12554;SDS011;6343;50.868;4.700;2023-01-28T16:56:48;12.27;;;8.50;;
12554;SDS011;6343;50.868;4.700;2023-01-28T16:59:14;14.53;;;9.20;;
12554;SDS011;6343;50.868;4.700;2023-01-28T17:01:41;14.20;;;9.20;;
12554;SDS011;6343;50.868;4.700;2023-01-28T17:04:07;13.33;;;9.27;;
12554;SDS011;6343;50.868;4.700;2023-01-28T17:06:35;12.80;;;8.67;;
12554;SDS011;6343;50.868;4.700;2023-01-28T17:09:05;14.67;;;9.47;;
12554;SDS011;6343;50.868;4.700;2023-01-28T17:11:32;13.17;;;8.57;;
12554;SDS011;6343;50.868;4.700;2023-01-28T17:13:58;16.60;;;9.30;;
12554;SDS011;6343;50.868;4.700;2023-01-28T17:16:24;12.63;;;8.47;;
12554;SDS011;6343;50.868;4.700;2023-01-28T17:18:51;16.07;;;9.30;;
12554;SDS011;6343;50.868;4.700;2023-01-28T17:21:17;14.43;;;9.13;;
12554;SDS011;6343;50.868;4.700;2023-01-28T17:23:43;12.73;;;8.13;;
12554;SDS011;6343;50.868;4.700;2023-01-28T17:26:11;13.00;;;8.53;;